sensor_id;sensor_type;location;lat;lon;timestamp;temperature;humidity
44627;DHT22;30333;52.192;8.834;2023-03-25T00:00:19;8.50;99.90
44627;DHT22;30333;52.192;8.834;2023-03-25T00:02:48;8.50;99.90
44627;DHT22;30333;52.192;8.834;2023-03-25T00:05:16;8.60;99.90
44627;DHT22;30333;52.192;8.834;2023-03-25T00:07:43;8.60;99.90
44627;DHT22;30333;52.192;8.834;2023-03-25T00:10:09;8.50;99.90
44627;DHT22;30333;52.192;8.834;2023-03-25T00:22:21;8.60;99.90
44627;DHT22;30333;52.192;8.834;2023-03-25T00:27:14;8.60;99.90
44627;DHT22;30333;52.192;8.834;2023-03-25T00:37:06;8.70;99.90
44627;DHT22;30333;52.192;8.834;2023-03-25T00:46:52;8.90;99.90
44627;DHT22;30333;52.192;8.834;2023-03-25T00:49:18;9.00;99.90
44627;DHT22;30333;52.192;8.834;2023-03-25T00:51:43;9.00;99.90
44627;DHT22;30333;52.192;8.834;2023-03-25T00:54:09;8.90;99.90
44627;DHT22;30333;52.192;8.834;2023-03-25T00:56:36;9.10;99.90
44627;DHT22;30333;52.192;8.834;2023-03-25T01:01:28;9.20;99.90
44627;DHT22;30333;52.192;8.834;2023-03-25T01:03:56;9.20;99.90
44627;DHT22;30333;52.192;8.834;2023-03-25T01:06:42;9.10;99.90
44627;DHT22;30333;52.192;8.834;2023-03-25T01:09:12;9.30;99.90
44627;DHT22;30333;52.192;8.834;2023-03-25T01:11:39;9.30;99.90
44627;DHT22;30333;52.192;8.834;2023-03-25T01:14:09;9.30;99.90
44627;DHT22;30333;52.192;8.834;2023-03-25T01:21:27;9.30;99.90
44627;DHT22;30333;52.192;8.834;2023-03-25T01:26:19;9.30;99.90
44627;DHT22;30333;52.192;8.834;2023-03-25T01:28:45;9.30;99.90
44627;DHT22;30333;52.192;8.834;2023-03-25T01:31:12;9.30;99.90
44627;DHT22;30333;52.192;8.834;2023-03-25T01:33:39;9.30;99.90
44627;DHT22;30333;52.192;8.834;2023-03-25T01:36:05;9.10;99.90
44627;DHT22;30333;52.192;8.834;2023-03-25T01:38:35;9.30;99.90
44627;DHT22;30333;52.192;8.834;2023-03-25T01:48:38;9.30;99.90
44627;DHT22;30333;52.192;8.834;2023-03-25T01:56:00;9.40;99.90
44627;DHT22;30333;52.192;8.834;2023-03-25T01:58:28;9.40;99.90
44627;DHT22;30333;52.192;8.834;2023-03-25T02:00:55;9.40;99.90
44627;DHT22;30333;52.192;8.834;2023-03-25T02:03:22;9.40;99.90
44627;DHT22;30333;52.192;8.834;2023-03-25T02:06:01;9.30;99.90
44627;DHT22;30333;52.192;8.834;2023-03-25T02:08:30;9.40;99.90
44627;DHT22;30333;52.192;8.834;2023-03-25T02:32:31;9.40;99.90
44627;DHT22;30333;52.192;8.834;2023-03-25T02:35:27;9.40;99.90
44627;DHT22;30333;52.192;8.834;2023-03-25T02:38:11;9.40;99.90
44627;DHT22;30333;52.192;8.834;2023-03-25T02:40:47;9.30;99.90
44627;DHT22;30333;52.192;8.834;2023-03-25T02:43:30;8.90;99.90
44627;DHT22;30333;52.192;8.834;2023-03-25T02:46:00;9.30;99.90
44627;DHT22;30333;52.192;8.834;2023-03-25T02:49:20;9.20;99.90
44627;DHT22;30333;52.192;8.834;2023-03-25T02:51:23;11.60;99.90
44627;DHT22;30333;52.192;8.834;2023-03-25T02:53:52;9.40;99.90
44627;DHT22;30333;52.192;8.834;2023-03-25T02:56:22;9.30;99.90
44627;DHT22;30333;52.192;8.834;2023-03-25T03:03:42;9.20;99.90
44627;DHT22;30333;52.192;8.834;2023-03-25T03:06:15;9.20;99.90
44627;DHT22;30333;52.192;8.834;2023-03-25T03:16:57;9.10;99.90
44627;DHT22;30333;52.192;8.834;2023-03-25T03:19:36;9.10;99.90
44627;DHT22;30333;52.192;8.834;2023-03-25T03:24:46;9.10;99.90
44627;DHT22;30333;52.192;8.834;2023-03-25T03:27:35;9.10;99.90
44627;DHT22;30333;52.192;8.834;2023-03-25T03:30:10;9.90;99.90
44627;DHT22;30333;52.192;8.834;2023-03-25T03:32:53;8.90;99.90
44627;DHT22;30333;52.192;8.834;2023-03-25T03:35:27;9.40;99.90
44627;DHT22;30333;52.192;8.834;2023-03-25T03:38:09;8.80;99.90
44627;DHT22;30333;52.192;8.834;2023-03-25T03:40:39;8.90;99.90
44627;DHT22;30333;52.192;8.834;2023-03-25T03:43:09;8.70;99.90
44627;DHT22;30333;52.192;8.834;2023-03-25T03:45:40;8.70;99.90
44627;DHT22;30333;52.192;8.834;2023-03-25T03:48:14;8.70;99.90
44627;DHT22;30333;52.192;8.834;2023-03-25T03:50:46;8.70;99.90
44627;DHT22;30333;52.192;8.834;2023-03-25T03:53:24;8.70;99.90
44627;DHT22;30333;52.192;8.834;2023-03-25T03:55:58;8.80;99.90
44627;DHT22;30333;52.192;8.834;2023-03-25T03:58:31;8.80;99.90
44627;DHT22;30333;52.192;8.834;2023-03-25T04:01:09;8.80;99.90
44627;DHT22;30333;52.192;8.834;2023-03-25T04:06:12;8.90;99.90
44627;DHT22;30333;52.192;8.834;2023-03-25T04:11:46;8.90;99.90
44627;DHT22;30333;52.192;8.834;2023-03-25T04:26:33;8.70;99.90
44627;DHT22;30333;52.192;8.834;2023-03-25T04:29:03;8.50;99.90
44627;DHT22;30333;52.192;8.834;2023-03-25T04:33:57;8.60;99.90
44627;DHT22;30333;52.192;8.834;2023-03-25T04:36:24;8.50;99.90
44627;DHT22;30333;52.192;8.834;2023-03-25T04:38:53;8.40;99.90
44627;DHT22;30333;52.192;8.834;2023-03-25T04:46:13;8.30;99.90
44627;DHT22;30333;52.192;8.834;2023-03-25T04:51:06;8.30;99.90
44627;DHT22;30333;52.192;8.834;2023-03-25T05:03:19;8.50;99.90
44627;DHT22;30333;52.192;8.834;2023-03-25T05:05:49;8.50;99.90
44627;DHT22;30333;52.192;8.834;2023-03-25T05:08:16;8.40;99.90
44627;DHT22;30333;52.192;8.834;2023-03-25T05:10:42;8.70;99.90
44627;DHT22;30333;52.192;8.834;2023-03-25T05:13:09;8.60;99.90
44627;DHT22;30333;52.192;8.834;2023-03-25T05:15:35;8.60;99.90
44627;DHT22;30333;52.192;8.834;2023-03-25T05:18:11;8.60;99.90
44627;DHT22;30333;52.192;8.834;2023-03-25T05:20:42;8.50;99.90
44627;DHT22;30333;52.192;8.834;2023-03-25T05:23:10;8.60;99.90
44627;DHT22;30333;52.192;8.834;2023-03-25T11:25:44;12.30;99.90
44627;DHT22;30333;52.192;8.834;2023-03-25T11:28:17;12.40;99.90
44627;DHT22;30333;52.192;8.834;2023-03-25T11:31:13;12.60;99.90
44627;DHT22;30333;52.192;8.834;2023-03-25T11:33:40;12.80;99.90
44627;DHT22;30333;52.192;8.834;2023-03-25T11:36:23;13.00;99.90
44627;DHT22;30333;52.192;8.834;2023-03-25T11:38:57;13.00;99.90
44627;DHT22;30333;52.192;8.834;2023-03-25T11:41:26;12.90;99.90
44627;DHT22;30333;52.192;8.834;2023-03-25T11:43:52;12.80;99.90
44627;DHT22;30333;52.192;8.834;2023-03-25T11:46:19;13.00;99.90
44627;DHT22;30333;52.192;8.834;2023-03-25T11:48:46;13.00;99.90
44627;DHT22;30333;52.192;8.834;2023-03-25T11:51:24;13.00;99.90
44627;DHT22;30333;52.192;8.834;2023-03-25T11:54:02;13.10;99.90
44627;DHT22;30333;52.192;8.834;2023-03-25T11:56:34;13.20;99.90
44627;DHT22;30333;52.192;8.834;2023-03-25T11:59:02;13.30;99.90
44627;DHT22;30333;52.192;8.834;2023-03-25T12:01:43;13.30;99.90
44627;DHT22;30333;52.192;8.834;2023-03-25T12:04:21;13.30;99.90
44627;DHT22;30333;52.192;8.834;2023-03-25T12:07:06;13.10;99.90
44627;DHT22;30333;52.192;8.834;2023-03-25T12:09:33;12.80;99.90
44627;DHT22;30333;52.192;8.834;2023-03-25T12:17:56;12.70;99.90
44627;DHT22;30333;52.192;8.834;2023-03-25T12:26:18;12.70;99.90
44627;DHT22;30333;52.192;8.834;2023-03-25T12:31:56;12.60;99.90
44627;DHT22;30333;52.192;8.834;2023-03-25T12:34:54;12.60;99.90
44627;DHT22;30333;52.192;8.834;2023-03-25T12:37:55;12.60;99.90
44627;DHT22;30333;52.192;8.834;2023-03-25T12:40:57;12.50;99.90
44627;DHT22;30333;52.192;8.834;2023-03-25T12:54:57;12.20;99.90
44627;DHT22;30333;52.192;8.834;2023-03-25T13:06:23;11.70;99.90
44627;DHT22;30333;52.192;8.834;2023-03-25T13:09:05;11.60;99.90
44627;DHT22;30333;52.192;8.834;2023-03-25T13:11:39;11.60;99.90
44627;DHT22;30333;52.192;8.834;2023-03-25T13:14:17;11.40;99.90
44627;DHT22;30333;52.192;8.834;2023-03-25T13:16:46;11.20;99.90
44627;DHT22;30333;52.192;8.834;2023-03-25T13:19:16;11.20;99.90
44627;DHT22;30333;52.192;8.834;2023-03-25T13:21:46;11.50;99.90
44627;DHT22;30333;52.192;8.834;2023-03-25T13:24:18;11.70;99.90
44627;DHT22;30333;52.192;8.834;2023-03-25T13:26:46;12.20;99.90
44627;DHT22;30333;52.192;8.834;2023-03-25T13:29:26;11.60;99.90
44627;DHT22;30333;52.192;8.834;2023-03-25T13:31:55;11.60;99.90
44627;DHT22;30333;52.192;8.834;2023-03-25T13:34:59;11.50;99.90
44627;DHT22;30333;52.192;8.834;2023-03-25T13:37:34;11.40;99.90
44627;DHT22;30333;52.192;8.834;2023-03-25T13:45:17;11.10;99.90
44627;DHT22;30333;52.192;8.834;2023-03-25T13:47:52;11.30;99.90
44627;DHT22;30333;52.192;8.834;2023-03-25T13:50:27;11.30;99.90
44627;DHT22;30333;52.192;8.834;2023-03-25T13:52:59;11.30;99.90
44627;DHT22;30333;52.192;8.834;2023-03-25T13:55:39;11.20;99.90
44627;DHT22;30333;52.192;8.834;2023-03-25T14:03:48;11.50;99.90
44627;DHT22;30333;52.192;8.834;2023-03-25T14:12:13;11.20;99.90
44627;DHT22;30333;52.192;8.834;2023-03-25T14:14:46;10.90;99.90
44627;DHT22;30333;52.192;8.834;2023-03-25T14:17:15;10.90;99.90
44627;DHT22;30333;52.192;8.834;2023-03-25T14:19:47;11.90;99.90
44627;DHT22;30333;52.192;8.834;2023-03-25T14:22:20;11.50;99.90
44627;DHT22;30333;52.192;8.834;2023-03-25T14:24:48;11.20;99.90
44627;DHT22;30333;52.192;8.834;2023-03-25T14:27:29;10.50;99.90
44627;DHT22;30333;52.192;8.834;2023-03-25T14:32:40;9.90;99.90
44627;DHT22;30333;52.192;8.834;2023-03-25T14:43:32;9.90;99.90
44627;DHT22;30333;52.192;8.834;2023-03-25T14:48:42;10.00;99.90
44627;DHT22;30333;52.192;8.834;2023-03-25T14:51:30;10.70;99.90
44627;DHT22;30333;52.192;8.834;2023-03-25T14:54:11;10.20;99.90
44627;DHT22;30333;52.192;8.834;2023-03-25T14:57:04;10.30;99.90
44627;DHT22;30333;52.192;8.834;2023-03-25T14:59:36;10.50;99.90
44627;DHT22;30333;52.192;8.834;2023-03-25T15:02:25;10.40;99.90
44627;DHT22;30333;52.192;8.834;2023-03-25T15:04:57;10.40;99.90
44627;DHT22;30333;52.192;8.834;2023-03-25T15:07:52;10.40;99.90
44627;DHT22;30333;52.192;8.834;2023-03-25T15:10:21;10.30;99.90
44627;DHT22;30333;52.192;8.834;2023-03-25T15:12:52;10.10;99.90
44627;DHT22;30333;52.192;8.834;2023-03-25T15:15:33;10.00;99.90
44627;DHT22;30333;52.192;8.834;2023-03-25T15:21:02;9.80;99.90
44627;DHT22;30333;52.192;8.834;2023-03-25T15:29:22;9.50;99.90
44627;DHT22;30333;52.192;8.834;2023-03-25T15:37:25;9.70;99.90
44627;DHT22;30333;52.192;8.834;2023-03-25T15:45:30;9.90;99.90
44627;DHT22;30333;52.192;8.834;2023-03-25T15:51:13;10.50;99.90
44627;DHT22;30333;52.192;8.834;2023-03-25T15:56:24;10.60;99.90
44627;DHT22;30333;52.192;8.834;2023-03-25T15:59:24;10.60;99.90
44627;DHT22;30333;52.192;8.834;2023-03-25T16:01:54;10.70;99.90
44627;DHT22;30333;52.192;8.834;2023-03-25T16:04:39;10.80;99.90
44627;DHT22;30333;52.192;8.834;2023-03-25T16:07:09;10.90;99.90
44627;DHT22;30333;52.192;8.834;2023-03-25T16:09:43;10.90;99.90
44627;DHT22;30333;52.192;8.834;2023-03-25T16:12:10;10.80;99.90
44627;DHT22;30333;52.192;8.834;2023-03-25T16:14:36;10.80;99.90
44627;DHT22;30333;52.192;8.834;2023-03-25T16:17:05;10.70;99.90
44627;DHT22;30333;52.192;8.834;2023-03-25T16:19:41;11.80;99.90
44627;DHT22;30333;52.192;8.834;2023-03-25T16:22:20;10.60;99.90
44627;DHT22;30333;52.192;8.834;2023-03-25T16:24:48;10.70;99.90
44627;DHT22;30333;52.192;8.834;2023-03-25T16:27:44;11.80;99.90
44627;DHT22;30333;52.192;8.834;2023-03-25T16:30:25;10.80;99.90
44627;DHT22;30333;52.192;8.834;2023-03-25T16:32:52;10.80;99.90
44627;DHT22;30333;52.192;8.834;2023-03-25T16:35:28;10.80;99.90
44627;DHT22;30333;52.192;8.834;2023-03-25T16:37:57;10.70;99.90
44627;DHT22;30333;52.192;8.834;2023-03-25T16:40:35;10.70;99.90
44627;DHT22;30333;52.192;8.834;2023-03-25T16:43:16;10.60;99.90
44627;DHT22;30333;52.192;8.834;2023-03-25T16:45:44;10.40;99.90
44627;DHT22;30333;52.192;8.834;2023-03-25T16:48:32;10.30;99.90
44627;DHT22;30333;52.192;8.834;2023-03-25T16:54:08;10.20;99.90
44627;DHT22;30333;52.192;8.834;2023-03-25T16:56:38;10.10;99.90
44627;DHT22;30333;52.192;8.834;2023-03-25T16:59:17;10.00;99.90
44627;DHT22;30333;52.192;8.834;2023-03-25T17:01:54;9.90;99.90
44627;DHT22;30333;52.192;8.834;2023-03-25T17:04:25;10.00;99.90
44627;DHT22;30333;52.192;8.834;2023-03-25T17:06:59;10.00;99.90
44627;DHT22;30333;52.192;8.834;2023-03-25T17:09:27;10.00;99.90
44627;DHT22;30333;52.192;8.834;2023-03-25T17:12:00;9.90;99.90
44627;DHT22;30333;52.192;8.834;2023-03-25T17:14:32;9.80;99.90
44627;DHT22;30333;52.192;8.834;2023-03-25T17:17:06;9.80;99.90
44627;DHT22;30333;52.192;8.834;2023-03-25T17:19:32;9.80;99.90
44627;DHT22;30333;52.192;8.834;2023-03-25T17:22:53;10.10;99.90
44627;DHT22;30333;52.192;8.834;2023-03-25T17:24:57;9.80;99.90
44627;DHT22;30333;52.192;8.834;2023-03-25T17:27:33;10.40;99.90
44627;DHT22;30333;52.192;8.834;2023-03-25T17:30:15;9.80;99.90
44627;DHT22;30333;52.192;8.834;2023-03-25T17:32:42;9.80;99.90
44627;DHT22;30333;52.192;8.834;2023-03-25T17:35:21;10.10;99.90
